Skip Navigation LinksHome page > Weather > Current weather Skip Navigation Links

Current Weather

Chicago Midway, Chicago

For information only: do not use for flight planning or navigation.
Latest weather
Observation time Friday, April 20, 2018 2:53 AM CDT
Local time Friday, April 20, 2018 3:23 AM CDT
Flight conditions Visual Meteorological Conditions
Winds
Wind speed calm
Visibility 10 mi.
Sky condition
Ceiling unlimited
Sky clear
Temperature 38°F
Dewpoint 24°F
Altimeter 30.45 in.Hg
Derived measurements
Relative humidity 57%
Wind chill 38°F
Density altitude -1335 ft.
Sea-level pressure 30.47 in.Hg
Remarks
Automated weather observing station with precipitation discriminator.
METAR KMDW 200753Z 00000KT 10SM CLR 03/M04 A3045 RMK AO2 SLP317 T00331044

Settings

Location code

InnerDrive.Weather 4.0.6615.0 Release CLR 4.0.30319.42000
Copyright ©2018 Inner Drive Technology. All rights reserved. Portions Copyright ©1986-2018 David Braverman.

Find weather

Site navigation


Skip Navigation Links

Place info

Page info

PayPal - The safer, easier way to pay online!

Return home.

Copyright ©2018 Inner Drive Technology. Purveyors of fine, hand-crafted computer software. Page printed 2018-04-20T08:23:13 UTC.